Time;durP1;ratioP1;P1;durP2;ratioP2;P2;SDS_P1;SDS_P2;PMS_P1;PMS_P2;Temp;Humidity;BMP_temperature;BMP_pressure;BME280_temperature;BME280_humidity;BME280_pressure;Samples;Min_cycle;Max_cycle;Signal;HPM_P1;HPM_P2
2021/07/08 00:00:24;;;;;;;41.65;24.38;;;;;;;15.49;100.00;96131.53;1014844;29;20044;-67
2021/07/08 00:00:55;;;;;;;42.85;24.25;;;;;;;15.58;100.00;96142.25;1010631;29;20103;-69
2021/07/08 00:01:27;;;;;;;48.72;25.38;;;;;;;15.53;100.00;96131.75;1011489;29;20037;-68
2021/07/08 00:01:58;;;;;;;44.20;25.65;;;;;;;15.53;100.00;96124.59;1018605;29;20481;-69
2021/07/08 00:02:29;;;;;;;49.15;26.73;;;;;;;15.63;100.00;96139.53;1015330;29;20039;-69
2021/07/08 00:03:00;;;;;;;49.22;25.85;;;;;;;15.64;100.00;96135.81;1018454;29;20399;-69
2021/07/08 00:03:30;;;;;;;44.47;23.60;;;;;;;15.61;100.00;96135.59;1018767;29;20050;-69
2021/07/08 00:04:00;;;;;;;40.90;24.15;;;;;;;15.60;100.00;96134.81;1016432;29;20039;-68
2021/07/08 00:04:31;;;;;;;45.40;25.80;;;;;;;15.60;100.00;96126.88;1018942;29;20602;-69
2021/07/08 00:05:02;;;;;;;57.25;28.13;;;;;;;15.62;100.00;96130.00;1018962;29;20027;-69
2021/07/08 00:05:35;;;;;;;52.00;27.08;;;;;;;15.60;100.00;96121.59;1018837;29;20032;-69
2021/07/08 00:06:05;;;;;;;41.65;23.90;;;;;;;15.53;100.00;96115.88;1014618;29;20453;-69
2021/07/08 00:06:39;;;;;;;43.92;24.65;;;;;;;15.55;100.00;96122.44;1014925;29;20036;-69
2021/07/08 00:07:10;;;;;;;37.55;21.65;;;;;;;15.52;100.00;96114.28;1018622;29;20036;-69
2021/07/08 00:07:40;;;;;;;44.53;24.90;;;;;;;15.59;100.00;96127.16;1017191;29;20040;-69
2021/07/08 00:08:11;;;;;;;52.47;28.10;;;;;;;15.60;100.00;96124.25;1011466;29;20028;-69
2021/07/08 00:08:42;;;;;;;46.55;26.05;;;;;;;15.54;100.00;96114.78;1011265;29;20089;-68
2021/07/08 00:09:15;;;;;;;46.50;25.60;;;;;;;15.57;100.00;96116.88;1010430;29;20604;-69
2021/07/08 00:09:45;;;;;;;40.42;23.67;;;;;;;15.58;100.00;96121.09;1018860;29;20032;-69
2021/07/08 00:10:19;;;;;;;43.88;24.98;;;;;;;15.48;100.00;96116.69;1014611;29;20238;-69
2021/07/08 00:10:52;;;;;;;45.20;26.27;;;;;;;15.40;100.00;96092.75;1010321;29;20029;-69
2021/07/08 00:11:23;;;;;;;65.35;28.67;;;;;;;15.61;100.00;96119.72;1011060;29;20065;-69
2021/07/08 00:11:53;;;;;;;46.70;26.30;;;;;;;15.59;100.00;96111.28;1010831;29;20037;-69
2021/07/08 00:12:24;;;;;;;44.78;25.92;;;;;;;15.58;100.00;96126.38;1002852;29;20040;-65
2021/07/08 00:12:55;;;;;;;43.15;25.33;;;;;;;15.58;100.00;96121.09;1011386;29;20025;-69
2021/07/08 00:13:29;;;;;;;56.88;28.30;;;;;;;15.59;100.00;96114.72;1010962;29;20520;-69
2021/07/08 00:13:59;;;;;;;49.40;26.75;;;;;;;15.62;100.00;96119.44;1021836;29;20067;-69
2021/07/08 00:14:30;;;;;;;52.42;27.02;;;;;;;15.62;100.00;96116.00;1006792;29;20491;-69
2021/07/08 00:15:13;;;;;;;59.38;30.17;;;;;;;15.63;100.00;96113.09;1007112;29;20033;-69
2021/07/08 00:15:43;;;;;;;50.92;26.85;;;;;;;15.62;100.00;96116.78;1010046;29;20044;-69
2021/07/08 00:16:14;;;;;;;45.28;26.45;;;;;;;15.60;100.00;96112.88;1017800;29;20052;-69
2021/07/08 00:16:44;;;;;;;48.33;28.48;;;;;;;15.62;100.00;96121.28;1023024;29;20027;-69
2021/07/08 00:17:15;;;;;;;48.88;26.48;;;;;;;15.63;100.00;96118.38;1022221;29;20042;-68
2021/07/08 00:17:45;;;;;;;47.05;27.55;;;;;;;15.64;100.00;96119.94;1018106;29;20043;-69
2021/07/08 00:18:16;;;;;;;46.40;25.58;;;;;;;15.58;100.00;96107.84;1014958;29;20036;-69
2021/07/08 00:18:46;;;;;;;52.53;27.38;;;;;;;15.66;100.00;96123.13;1010848;29;20079;-69
2021/07/08 00:19:16;;;;;;;50.78;27.27;;;;;;;15.62;100.00;96114.16;1010522;29;20466;-68
2021/07/08 00:19:47;;;;;;;47.55;27.30;;;;;;;15.66;100.00;96119.66;1010924;29;20779;-69
2021/07/08 00:20:19;;;;;;;45.08;26.20;;;;;;;15.62;100.00;96119.44;1014896;29;20032;-68
2021/07/08 00:20:49;;;;;;;47.30;26.83;;;;;;;15.63;100.00;96121.03;1017252;29;20027;-69
2021/07/08 00:21:20;;;;;;;47.88;26.35;;;;;;;15.56;100.00;96108.16;1014183;29;20027;-69
2021/07/08 00:21:51;;;;;;;46.20;26.35;;;;;;;15.65;100.00;96121.50;1014942;29;20594;-69
2021/07/08 00:22:21;;;;;;;47.33;26.92;;;;;;;15.64;100.00;96122.59;1010959;29;20032;-68
2021/07/08 00:22:52;;;;;;;45.92;26.77;;;;;;;15.64;100.00;96125.25;1018321;29;20028;-69
2021/07/08 00:23:22;;;;;;;49.25;27.35;;;;;;;15.59;100.00;96117.34;1022606;29;20039;-69
2021/07/08 00:23:53;;;;;;;48.38;27.70;;;;;;;15.64;100.00;96125.25;1018801;29;20564;-69
2021/07/08 00:24:23;;;;;;;53.05;27.50;;;;;;;15.64;100.00;96125.25;1017969;29;20906;-69
2021/07/08 00:24:54;;;;;;;53.60;28.20;;;;;;;15.68;100.00;96125.47;1014903;29;20539;-68
2021/07/08 00:25:26;;;;;;;48.60;26.15;;;;;;;15.62;100.00;96126.59;1014747;29;20409;-68
2021/07/08 00:25:57;;;;;;;44.72;25.63;;;;;;;15.64;100.00;96122.59;1015168;29;20112;-69
2021/07/08 00:26:28;;;;;;;45.45;26.13;;;;;;;15.65;100.00;96126.03;1018297;29;20067;-68
2021/07/08 00:26:58;;;;;;;46.33;25.63;;;;;;;15.65;100.00;96128.66;1022214;28;20027;-70
2021/07/08 00:27:28;;;;;;;44.20;26.23;;;;;;;15.59;100.00;96113.94;1013770;29;20114;-69
2021/07/08 00:28:02;;;;;;;46.05;26.95;;;;;;;15.67;100.00;96134.50;1012062;29;20032;-69
2021/07/08 00:28:32;;;;;;;41.88;24.58;;;;;;;15.68;100.00;96133.41;1018708;29;20028;-70
2021/07/08 00:29:03;;;;;;;51.17;26.73;;;;;;;15.70;100.00;96134.72;1019197;29;20039;-69
2021/07/08 00:29:34;;;;;;;45.08;26.48;;;;;;;15.71;100.00;96141.56;1018816;29;20040;-69
2021/07/08 00:30:05;;;;;;;49.38;27.90;;;;;;;15.70;100.00;96144.53;1018173;29;20059;-69
2021/07/08 00:30:36;;;;;;;45.97;27.50;;;;;;;15.70;100.00;96145.31;1018946;29;20074;-69
2021/07/08 00:31:06;;;;;;;43.67;25.15;;;;;;;15.70;100.00;96147.94;1014506;29;20047;-69
2021/07/08 00:31:37;;;;;;;47.22;25.77;;;;;;;15.70;100.00;96149.81;1014473;29;20040;-69
2021/07/08 00:32:07;;;;;;;42.67;25.70;;;;;;;15.68;100.00;96147.44;1014770;29;20024;-68
2021/07/08 00:32:40;;;;;;;50.80;25.10;;;;;;;15.59;100.00;96143.81;1018904;29;20042;-67
2021/07/08 00:33:10;;;;;;;41.33;25.02;;;;;;;15.59;100.00;96145.66;1015078;29;20024;-69
2021/07/08 00:33:41;;;;;;;48.45;25.95;;;;;;;15.65;100.00;96158.53;1014741;29;20060;-67
2021/07/08 00:34:11;;;;;;;42.00;25.00;;;;;;;15.65;100.00;96163.84;1018714;29;20540;-68
2021/07/08 00:34:42;;;;;;;41.08;24.15;;;;;;;15.65;100.00;96168.34;1018840;29;20441;-68
2021/07/08 00:35:18;;;;;;;43.10;25.52;;;;;;;15.65;100.00;96169.13;1014951;29;20028;-68
2021/07/08 00:35:49;;;;;;;41.60;26.35;;;;;;;15.47;100.00;96140.81;1018874;29;20458;-69
2021/07/08 00:36:19;;;;;;;46.47;26.20;;;;;;;15.68;100.00;96168.59;1018760;29;20036;-69
2021/07/08 00:36:52;;;;;;;59.63;28.58;;;;;;;15.69;100.00;96175.47;1021404;29;20457;-68
2021/07/08 00:37:23;;;;;;;42.10;25.05;;;;;;;15.68;100.00;96183.69;1021984;29;20054;-69
2021/07/08 00:37:53;;;;;;;47.10;26.02;;;;;;;15.68;100.00;96183.69;1018762;29;20038;-69
2021/07/08 00:38:24;;;;;;;45.95;26.55;;;;;;;15.71;100.00;96189.19;1018044;29;20091;-69
2021/07/08 00:38:54;;;;;;;42.70;25.20;;;;;;;15.70;100.00;96189.50;1018965;29;20046;-69
2021/07/08 00:39:25;;;;;;;42.90;24.00;;;;;;;15.67;100.00;96188.19;1018574;29;20024;-69
2021/07/08 00:39:55;;;;;;;43.42;25.73;;;;;;;15.69;100.00;96185.25;1020985;29;20046;-69
2021/07/08 00:40:26;;;;;;;42.08;25.30;;;;;;;15.62;100.00;96174.97;973563;29;1437342;-68
2021/07/08 00:40:57;;;;;;;39.90;25.08;;;;;;;15.70;100.00;96173.63;1023062;29;20039;-69
2021/07/08 00:41:27;;;;;;;41.55;24.85;;;;;;;15.68;100.00;96171.25;1022928;29;20432;-69
2021/07/08 00:41:58;;;;;;;46.17;24.85;;;;;;;15.51;100.00;96144.44;1018456;29;20031;-69
2021/07/08 00:42:28;;;;;;;44.53;25.15;;;;;;;15.61;100.00;96156.75;1014675;29;20040;-69
2021/07/08 00:42:59;;;;;;;43.10;23.75;;;;;;;15.70;100.00;96166.47;1018649;29;20027;-69
2021/07/08 00:43:31;;;;;;;45.55;26.42;;;;;;;15.70;100.00;96165.69;1014495;29;20047;-69
2021/07/08 00:44:01;;;;;;;44.65;25.48;;;;;;;15.68;100.00;96160.66;1011224;29;20099;-69
2021/07/08 00:44:31;;;;;;;43.30;25.90;;;;;;;15.66;100.00;96165.47;1007697;29;20059;-69
2021/07/08 00:45:04;;;;;;;40.60;25.15;;;;;;;15.66;100.00;96157.53;1010963;29;20040;-69
2021/07/08 00:45:35;;;;;;;41.88;24.48;;;;;;;15.69;100.00;96154.31;1010920;29;20056;-69
2021/07/08 00:46:05;;;;;;;41.63;25.25;;;;;;;15.70;100.00;96150.59;1008013;29;20514;-69
2021/07/08 00:46:36;;;;;;;36.28;22.88;;;;;;;15.69;100.00;96154.31;1011248;29;20115;-69
2021/07/08 00:47:06;;;;;;;42.95;24.55;;;;;;;15.70;100.00;96155.88;1014030;29;20526;-68
2021/07/08 00:47:37;;;;;;;43.05;25.63;;;;;;;15.71;100.00;96148.72;1018593;29;20035;-69
2021/07/08 00:48:10;;;;;;;42.50;24.92;;;;;;;15.70;100.00;96155.88;1022551;28;20059;-69
2021/07/08 00:48:41;;;;;;;42.90;25.98;;;;;;;15.70;100.00;96144.53;1015778;29;20040;-69
2021/07/08 00:49:11;;;;;;;40.00;24.92;;;;;;;15.71;100.00;96146.88;1015101;29;20614;-69
2021/07/08 00:49:42;;;;;;;39.63;24.70;;;;;;;15.68;100.00;96142.13;1018854;29;20664;-70
2021/07/08 00:50:15;;;;;;;43.45;25.83;;;;;;;15.62;100.00;96135.31;1016061;29;20572;-69
2021/07/08 00:50:46;;;;;;;54.08;27.33;;;;;;;15.69;100.00;96138.44;1023002;29;20082;-69
2021/07/08 00:51:16;;;;;;;48.65;25.33;;;;;;;15.69;100.00;96137.63;1018886;29;20028;-69
2021/07/08 00:51:50;;;;;;;48.33;27.05;;;;;;;15.67;100.00;96135.28;1018005;29;20027;-67
2021/07/08 00:52:20;;;;;;;41.45;24.77;;;;;;;15.59;100.00;96127.94;1011012;29;20033;-69
2021/07/08 00:52:51;;;;;;;41.78;24.40;;;;;;;15.65;100.00;96134.75;1011791;29;20032;-69
2021/07/08 00:53:21;;;;;;;44.25;25.73;;;;;;;15.62;100.00;96132.66;1014339;29;20028;-69
2021/07/08 00:53:52;;;;;;;57.10;28.88;;;;;;;15.66;100.00;96132.88;1022052;28;20500;-69
2021/07/08 00:54:22;;;;;;;44.00;26.00;;;;;;;15.62;100.00;96137.94;1022865;29;20425;-69
2021/07/08 00:54:53;;;;;;;40.03;24.40;;;;;;;15.63;100.00;96133.47;1022987;29;20031;-69
2021/07/08 00:55:23;;;;;;;44.10;25.33;;;;;;;15.64;100.00;96137.69;1024317;28;20023;-69
2021/07/08 00:55:58;;;;;;;55.35;28.67;;;;;;;15.55;100.00;96124.28;1018961;29;20024;-69
2021/07/08 00:56:33;;;;;;;42.92;24.92;;;;;;;15.62;100.00;96137.16;1015777;29;20451;-69
2021/07/08 00:57:04;;;;;;;39.13;24.55;;;;;;;15.57;100.00;96125.59;1018643;29;20571;-69
2021/07/08 00:57:35;;;;;;;42.58;24.33;;;;;;;15.64;100.00;96138.47;1014025;29;20080;-69
2021/07/08 00:58:07;;;;;;;37.80;23.42;;;;;;;15.59;100.00;96135.09;1014912;29;20040;-69
2021/07/08 00:58:37;;;;;;;42.45;24.02;;;;;;;15.60;100.00;96145.41;1011105;29;20115;-69
2021/07/08 00:59:08;;;;;;;39.97;24.17;;;;;;;15.63;100.00;96155.41;1011080;29;20029;-69
2021/07/08 00:59:45;;;;;;;42.47;24.45;;;;;;;15.54;100.00;96136.72;1011315;29;20497;-69
2021/07/08 01:00:15;;;;;;;50.75;27.20;;;;;;;15.63;100.00;96150.13;1008298;29;20029;-69
2021/07/08 01:00:46;;;;;;;48.05;25.55;;;;;;;15.65;100.00;96150.63;1005471;29;20117;-69
2021/07/08 01:01:16;;;;;;;45.55;24.95;;;;;;;15.64;100.00;96151.69;1007293;29;20025;-69
2021/07/08 01:01:46;;;;;;;46.28;24.55;;;;;;;15.53;100.00;96143.09;1007324;29;20398;-69
2021/07/08 01:02:17;;;;;;;49.72;27.02;;;;;;;15.62;100.00;96145.88;1016773;29;20800;-70
2021/07/08 01:02:48;;;;;;;37.88;23.23;;;;;;;15.60;100.00;96145.41;1018696;29;20040;-69
2021/07/08 01:03:20;;;;;;;37.65;23.17;;;;;;;15.42;100.00;96123.13;1015200;29;20024;-69
2021/07/08 01:03:50;;;;;;;47.35;26.00;;;;;;;15.54;100.00;96133.31;1011314;29;20513;-70
2021/07/08 01:04:21;;;;;;;40.60;23.20;;;;;;;15.56;100.00;96134.59;1010749;29;20036;-68
2021/07/08 01:04:52;;;;;;;48.13;25.55;;;;;;;15.53;100.00;96129.88;1015278;29;20031;-69
2021/07/08 01:05:30;;;;;;;37.53;23.73;;;;;;;15.58;100.00;96134.31;1018734;29;20051;-69
2021/07/08 01:06:01;;;;;;;43.85;25.48;;;;;;;15.64;100.00;96145.63;1015709;29;20032;-69
2021/07/08 01:06:32;;;;;;;47.38;24.90;;;;;;;15.64;100.00;96138.47;1017521;29;20068;-70
2021/07/08 01:07:02;;;;;;;38.35;23.42;;;;;;;15.63;100.00;96138.75;1012130;29;20028;-69
2021/07/08 01:07:33;;;;;;;37.60;23.35;;;;;;;15.62;100.00;96140.59;1018220;29;20089;-69
2021/07/08 01:08:04;;;;;;;43.22;23.70;;;;;;;15.63;100.00;96136.91;1018898;29;20773;-69
2021/07/08 01:08:35;;;;;;;49.15;26.75;;;;;;;15.57;100.00;96124.81;1018999;29;20401;-69
2021/07/08 01:09:06;;;;;;;40.20;24.67;;;;;;;15.58;100.00;96131.66;1022190;29;20027;-69
2021/07/08 01:09:36;;;;;;;44.25;25.55;;;;;;;15.59;100.00;96125.28;1014992;29;20028;-69
2021/07/08 01:10:07;;;;;;;48.05;24.20;;;;;;;15.65;100.00;96132.09;1015270;29;20024;-69
2021/07/08 01:10:40;;;;;;;38.22;22.15;;;;;;;15.66;100.00;96138.16;1014728;29;20040;-69
2021/07/08 01:11:11;;;;;;;40.78;24.83;;;;;;;15.65;100.00;96141.91;1018763;29;20024;-69
2021/07/08 01:11:42;;;;;;;39.38;23.73;;;;;;;15.64;100.00;96135.81;1015631;29;20533;-70
2021/07/08 01:12:13;;;;;;;36.47;22.25;;;;;;;15.64;100.00;96140.31;1010696;29;20032;-69
2021/07/08 01:12:43;;;;;;;38.83;22.88;;;;;;;15.60;100.00;96131.41;1007402;29;20041;-69
2021/07/08 01:13:13;;;;;;;34.92;21.65;;;;;;;15.59;100.00;96133.22;1011142;29;20067;-69
2021/07/08 01:13:44;;;;;;;31.08;18.92;;;;;;;15.57;100.00;96138.81;1007166;29;20435;-69
2021/07/08 01:14:14;;;;;;;32.20;19.88;;;;;;;15.58;100.00;96142.25;1010638;29;20464;-69
2021/07/08 01:14:45;;;;;;;29.42;19.77;;;;;;;15.56;100.00;96133.81;1010835;29;20072;-69
2021/07/08 01:15:15;;;;;;;32.03;19.95;;;;;;;15.54;100.00;96126.16;1011242;29;20035;-69
2021/07/08 01:15:46;;;;;;;30.98;21.05;;;;;;;15.53;100.00;96123.81;1013423;29;20051;-69
2021/07/08 01:16:16;;;;;;;30.30;20.25;;;;;;;15.54;100.00;96130.66;1010954;29;20029;-70
2021/07/08 01:16:47;;;;;;;42.03;23.52;;;;;;;15.56;100.00;96125.88;1007132;29;20033;-69
2021/07/08 01:17:17;;;;;;;31.40;21.05;;;;;;;15.50;100.00;96119.09;1006504;29;20037;-66
2021/07/08 01:17:48;;;;;;;39.40;21.95;;;;;;;15.55;100.00;96117.13;1012077;29;20747;-69
2021/07/08 01:18:19;;;;;;;40.92;21.15;;;;;;;15.55;100.00;96116.34;1015173;29;20035;-69
2021/07/08 01:18:49;;;;;;;37.63;22.35;;;;;;;15.54;100.00;96120.09;1018767;29;20032;-69
2021/07/08 01:19:20;;;;;;;32.35;21.88;;;;;;;15.54;100.00;96135.94;1016831;29;20032;-69
2021/07/08 01:19:50;;;;;;;32.88;20.92;;;;;;;15.55;100.00;96121.66;1018707;29;20047;-69
2021/07/08 01:20:27;;;;;;;34.00;21.20;;;;;;;15.50;100.00;96119.09;1010507;29;20105;-69
2021/07/08 01:21:23;;;;;;;42.30;23.35;;;;;;;15.56;100.00;96124.03;1007930;29;20044;-69
2021/07/08 01:21:54;;;;;;;36.55;22.10;;;;;;;15.57;100.00;96130.09;1007855;29;20105;-69
2021/07/08 01:22:30;;;;;;;33.80;20.88;;;;;;;15.59;100.00;96129.78;1018892;29;20490;-69
2021/07/08 01:23:02;;;;;;;34.60;19.77;;;;;;;15.57;100.00;96133.53;1014193;29;20032;-69
2021/07/08 01:23:32;;;;;;;35.50;21.02;;;;;;;15.52;100.00;96132.78;1012158;29;20117;-69
2021/07/08 01:24:04;;;;;;;41.47;23.20;;;;;;;15.56;100.00;96133.81;1014933;29;20463;-69
2021/07/08 01:24:35;;;;;;;31.35;20.77;;;;;;;15.54;100.00;96131.44;1015800;29;20119;-68
2021/07/08 01:25:06;;;;;;;33.42;21.13;;;;;;;15.56;100.00;96128.53;1018661;29;20509;-70
2021/07/08 01:25:38;;;;;;;35.40;22.05;;;;;;;15.57;100.00;96135.38;1018870;29;20024;-70
2021/07/08 01:26:08;;;;;;;32.50;20.98;;;;;;;15.57;100.00;96144.09;1018192;29;20110;-69
2021/07/08 01:26:40;;;;;;;29.15;19.58;;;;;;;15.54;100.00;96135.94;1015319;29;20509;-69
2021/07/08 01:27:11;;;;;;;38.33;21.60;;;;;;;15.55;100.00;96138.31;1014172;29;20491;-68
2021/07/08 01:27:41;;;;;;;32.35;20.17;;;;;;;15.53;100.00;96134.38;1010337;29;20032;-69
2021/07/08 01:28:12;;;;;;;33.42;20.77;;;;;;;15.58;100.00;96139.59;1010647;29;20040;-69
2021/07/08 01:28:42;;;;;;;39.33;22.67;;;;;;;15.58;100.00;96134.31;1010966;29;20040;-69
2021/07/08 01:29:13;;;;;;;41.22;22.65;;;;;;;15.60;100.00;96145.41;1007004;29;20168;-69
2021/07/08 01:29:43;;;;;;;36.15;21.58;;;;;;;15.62;100.00;96135.31;1003751;29;20030;-70
2021/07/08 01:30:14;;;;;;;30.67;20.25;;;;;;;15.60;100.00;96141.97;1011270;29;20472;-69
2021/07/08 01:30:46;;;;;;;29.42;19.60;;;;;;;15.63;100.00;96144.06;1011303;29;20037;-67
2021/07/08 01:31:17;;;;;;;36.08;21.08;;;;;;;15.64;100.00;96148.25;1015019;29;20135;-70
2021/07/08 01:31:47;;;;;;;32.97;19.98;;;;;;;15.65;100.00;96147.19;1011383;29;20032;-69
2021/07/08 01:32:18;;;;;;;50.78;25.02;;;;;;;15.66;100.00;96144.31;1011302;29;20514;-70
2021/07/08 01:32:50;;;;;;;45.03;24.35;;;;;;;15.59;100.00;96130.59;1014998;29;20044;-70
2021/07/08 01:33:21;;;;;;;44.22;23.92;;;;;;;15.69;100.00;96141.09;1015081;29;20058;-69
2021/07/08 01:33:51;;;;;;;37.65;22.42;;;;;;;15.64;100.00;96135.81;1022651;29;20020;-70
2021/07/08 01:34:22;;;;;;;41.53;20.95;;;;;;;15.70;100.00;96145.31;1018801;29;20015;-70
2021/07/08 01:34:52;;;;;;;24.83;17.27;;;;;;;15.66;100.00;96139.00;1017955;29;20677;-70
2021/07/08 01:35:23;;;;;;;20.35;16.38;;;;;;;15.64;100.00;96135.81;1022551;29;20096;-68
2021/07/08 01:35:53;;;;;;;25.73;16.85;;;;;;;15.67;100.00;96130.00;1022951;29;20087;-70
2021/07/08 01:36:23;;;;;;;20.77;14.27;;;;;;;15.63;100.00;96128.19;1022798;29;20027;-69
2021/07/08 01:36:54;;;;;;;20.23;14.40;;;;;;;15.57;100.00;96115.00;1018688;29;20107;-70
2021/07/08 01:37:24;;;;;;;17.02;12.82;;;;;;;15.58;100.00;96110.50;1017910;29;20508;-70
2021/07/08 01:37:55;;;;;;;18.27;13.73;;;;;;;15.50;100.00;96092.63;1014984;29;20039;-70
2021/07/08 01:38:26;;;;;;;20.67;14.95;;;;;;;15.50;100.00;96097.94;1014468;29;20032;-69
2021/07/08 01:38:56;;;;;;;17.30;13.35;;;;;;;15.53;100.00;96095.50;1015166;29;20016;-69
2021/07/08 01:39:27;;;;;;;18.83;13.40;;;;;;;15.50;100.00;96088.13;1014602;29;20028;-69
2021/07/08 01:40:00;;;;;;;19.85;14.25;;;;;;;15.45;100.00;96084.75;1018317;29;20421;-69
2021/07/08 01:40:31;;;;;;;20.98;14.95;;;;;;;15.49;100.00;96085.75;1019374;29;20688;-69
2021/07/08 01:41:02;;;;;;;19.63;13.98;;;;;;;15.49;100.00;96081.28;1022291;29;20047;-69
2021/07/08 01:41:32;;;;;;;19.67;14.57;;;;;;;15.46;100.00;96075.75;1014525;29;20024;-69
2021/07/08 01:42:03;;;;;;;19.83;14.63;;;;;;;15.46;100.00;96073.91;1018214;29;20154;-70
2021/07/08 01:42:33;;;;;;;23.15;15.70;;;;;;;15.48;100.00;96079.69;1018852;29;20116;-69
2021/07/08 01:43:04;;;;;;;25.73;16.38;;;;;;;15.47;100.00;96070.19;1018923;29;20035;-70
2021/07/08 01:43:38;;;;;;;23.52;16.60;;;;;;;15.48;100.00;96069.09;1014501;29;20040;-70
2021/07/08 01:44:09;;;;;;;22.92;16.27;;;;;;;15.48;100.00;96063.81;1014926;29;20135;-69
2021/07/08 01:44:39;;;;;;;27.50;17.55;;;;;;;15.48;100.00;96060.38;1014011;29;20402;-69
2021/07/08 01:45:12;;;;;;;34.92;18.58;;;;;;;15.49;100.00;96067.22;1014063;29;20043;-69
2021/07/08 01:45:43;;;;;;;33.80;17.92;;;;;;;15.51;100.00;96062.47;1016029;29;20039;-68
2021/07/08 01:46:15;;;;;;;28.60;18.13;;;;;;;15.51;100.00;96059.81;1012039;29;20466;-69
2021/07/08 01:46:45;;;;;;;27.33;18.95;;;;;;;15.49;100.00;96054.81;1014179;29;20575;-69
2021/07/08 01:47:16;;;;;;;34.08;20.60;;;;;;;15.51;100.00;96063.25;1014410;29;20031;-69
2021/07/08 01:47:47;;;;;;;48.88;24.40;;;;;;;15.51;100.00;96057.94;1010763;29;20041;-69
2021/07/08 01:48:17;;;;;;;44.80;23.60;;;;;;;15.53;100.00;96052.41;1018401;29;20036;-69
2021/07/08 01:48:48;;;;;;;49.25;24.95;;;;;;;15.52;100.00;96056.88;1021736;28;20027;-69
2021/07/08 01:49:18;;;;;;;50.13;25.67;;;;;;;15.56;100.00;96049.97;1022317;29;20027;-69
2021/07/08 01:49:49;;;;;;;54.72;25.50;;;;;;;15.56;100.00;96049.97;1022506;29;20670;-69
2021/07/08 01:50:19;;;;;;;40.22;22.05;;;;;;;15.56;100.00;96054.47;1006492;29;20522;-69
2021/07/08 01:50:50;;;;;;;46.95;23.25;;;;;;;15.57;100.00;96058.69;1006701;29;20036;-70
2021/07/08 01:51:23;;;;;;;40.80;23.17;;;;;;;15.57;100.00;96062.09;1006941;29;20036;-70
2021/07/08 01:51:53;;;;;;;40.65;22.90;;;;;;;15.58;100.00;96068.19;1007640;29;20563;-69
2021/07/08 01:52:24;;;;;;;44.38;23.05;;;;;;;15.53;100.00;96058.47;1018583;29;20036;-67
2021/07/08 01:52:55;;;;;;;48.97;25.25;;;;;;;15.59;100.00;96075.03;1022601;29;20023;-69
2021/07/08 01:53:25;;;;;;;49.50;25.00;;;;;;;15.58;100.00;96078.75;1018460;29;20676;-69
2021/07/08 01:53:59;;;;;;;41.22;22.35;;;;;;;15.58;100.00;96078.75;1018024;29;20070;-70
2021/07/08 01:54:29;;;;;;;50.75;23.95;;;;;;;15.59;100.00;96082.19;1017927;29;20123;-70
2021/07/08 01:55:00;;;;;;;51.90;24.00;;;;;;;15.54;100.00;96075.13;1014529;29;20150;-70
2021/07/08 01:55:30;;;;;;;65.72;25.15;;;;;;;15.59;100.00;96080.31;1014094;29;20100;-70
2021/07/08 01:56:01;;;;;;;34.75;19.70;;;;;;;15.61;100.00;96082.69;1022399;29;20043;-69
2021/07/08 01:56:33;;;;;;;32.25;19.45;;;;;;;15.62;100.00;96087.69;1018713;29;20032;-70
2021/07/08 01:57:04;;;;;;;30.55;19.45;;;;;;;15.59;100.00;96085.59;1025844;28;20106;-70
2021/07/08 01:57:34;;;;;;;30.70;18.88;;;;;;;15.56;100.00;96083.56;1012057;29;20406;-70
2021/07/08 01:58:04;;;;;;;39.33;20.45;;;;;;;15.55;100.00;96080.09;1015964;29;20486;-70
2021/07/08 01:58:38;;;;;;;33.47;20.98;;;;;;;15.56;100.00;96080.91;1014402;29;20511;-69
2021/07/08 01:59:11;;;;;;;38.17;20.42;;;;;;;15.54;100.00;96089.13;1018206;28;20035;-70
2021/07/08 01:59:41;;;;;;;45.45;21.50;;;;;;;15.48;100.00;96077.03;1021270;28;20024;-70
2021/07/08 02:00:15;;;;;;;36.42;21.25;;;;;;;15.53;100.00;96086.78;1018000;29;20032;-70
2021/07/08 02:00:48;;;;;;;34.78;20.02;;;;;;;15.55;100.00;96100.47;1017517;29;20041;-70
2021/07/08 02:01:24;;;;;;;39.60;22.23;;;;;;;15.50;100.00;96084.69;1014697;29;20470;-68
2021/07/08 02:01:54;;;;;;;39.70;22.23;;;;;;;15.51;100.00;96094.97;1025134;28;20102;-69
2021/07/08 02:02:30;;;;;;;55.85;25.02;;;;;;;15.54;100.00;96098.91;1022474;29;20039;-70
2021/07/08 02:03:01;;;;;;;37.95;21.33;;;;;;;15.53;100.00;96094.72;1018506;29;20036;-69
2021/07/08 02:03:35;;;;;;;51.28;23.23;;;;;;;15.54;100.00;96093.63;1017830;29;20032;-70
2021/07/08 02:04:05;;;;;;;49.05;25.08;;;;;;;15.54;100.00;96099.69;1018442;29;20028;-70
2021/07/08 02:04:35;;;;;;;58.55;25.60;;;;;;;15.56;100.00;96096.78;1010927;29;20069;-69
2021/07/08 02:05:07;;;;;;;51.28;25.15;;;;;;;15.50;100.00;96084.69;1010509;29;20029;-69
2021/07/08 02:05:37;;;;;;;56.28;26.77;;;;;;;15.59;100.00;96090.91;1010362;29;20096;-70
2021/07/08 02:06:08;;;;;;;58.83;28.27;;;;;;;15.59;100.00;96095.41;1014405;29;20050;-69
2021/07/08 02:06:38;;;;;;;66.47;29.33;;;;;;;15.56;100.00;96091.50;1005155;29;20067;-70
2021/07/08 02:07:08;;;;;;;68.93;29.73;;;;;;;15.55;100.00;96098.63;1006675;29;20664;-70
2021/07/08 02:07:39;;;;;;;57.47;28.60;;;;;;;15.55;100.00;96100.47;1010514;29;20431;-69
2021/07/08 02:08:09;;;;;;;82.32;31.63;;;;;;;15.56;100.00;96102.09;1014265;29;20426;-70
2021/07/08 02:08:41;;;;;;;63.45;28.67;;;;;;;15.57;100.00;96103.66;1022501;29;20043;-70
2021/07/08 02:09:11;;;;;;;73.00;30.63;;;;;;;15.55;100.00;96100.47;1022650;29;20114;-70
2021/07/08 02:09:41;;;;;;;78.57;31.40;;;;;;;15.55;100.00;96100.47;1021878;29;20031;-69
2021/07/08 02:10:14;;;;;;;92.88;31.85;;;;;;;15.57;100.00;96099.13;1022679;29;20031;-69
2021/07/08 02:10:44;;;;;;;63.28;28.05;;;;;;;15.59;100.00;96106.78;1022329;29;20027;-70
2021/07/08 02:11:15;;;;;;;61.70;28.17;;;;;;;15.60;100.00;96102.28;1020693;29;20046;-70
2021/07/08 02:11:45;;;;;;;58.05;27.23;;;;;;;15.57;100.00;96103.66;1018944;29;20114;-69
2021/07/08 02:12:16;;;;;;;62.58;28.40;;;;;;;15.59;100.00;96100.69;1014635;29;20020;-69
2021/07/08 02:12:46;;;;;;;59.67;26.95;;;;;;;15.51;100.00;96088.91;1010585;29;20053;-69
2021/07/08 02:13:17;;;;;;;57.10;27.58;;;;;;;15.59;100.00;96109.41;1014218;29;20111;-70
2021/07/08 02:13:48;;;;;;;49.97;25.35;;;;;;;15.62;100.00;96105.41;1014146;29;20044;-69
2021/07/08 02:14:21;;;;;;;55.10;26.50;;;;;;;15.56;100.00;96096.78;1014560;29;20036;-69
2021/07/08 02:14:51;;;;;;;49.83;24.98;;;;;;;15.57;100.00;96112.38;1011498;29;20024;-70
2021/07/08 02:15:22;;;;;;;70.50;29.65;;;;;;;15.56;100.00;96112.66;1018620;29;20860;-69
2021/07/08 02:15:52;;;;;;;64.88;28.33;;;;;;;15.54;100.00;96098.91;1018768;29;20083;-70
2021/07/08 02:16:23;;;;;;;53.03;27.92;;;;;;;15.61;100.00;96115.22;1018307;29;20418;-69
2021/07/08 02:16:54;;;;;;;56.22;27.60;;;;;;;15.59;100.00;96112.06;1022741;29;20656;-68
2021/07/08 02:17:25;;;;;;;65.00;29.10;;;;;;;15.51;100.00;96094.97;1013711;29;20016;-69
2021/07/08 02:17:55;;;;;;;58.63;27.17;;;;;;;15.41;100.00;96078.47;1014743;29;20020;-67
2021/07/08 02:18:26;;;;;;;55.38;26.70;;;;;;;15.56;100.00;96108.16;1014357;29;20107;-70
2021/07/08 02:18:57;;;;;;;58.15;27.17;;;;;;;15.58;100.00;96115.78;1013531;29;20020;-69
2021/07/08 02:19:27;;;;;;;58.53;26.15;;;;;;;15.53;100.00;96094.72;1017011;29;20024;-69
2021/07/08 02:19:58;;;;;;;57.25;27.00;;;;;;;15.51;100.00;96099.50;1020900;29;20524;-69
2021/07/08 02:20:29;;;;;;;60.72;28.65;;;;;;;15.54;100.00;96114.78;1022324;29;20633;-70
2021/07/08 02:21:00;;;;;;;61.03;27.77;;;;;;;15.58;100.00;96115.78;1022606;29;20027;-69
2021/07/08 02:21:30;;;;;;;51.75;25.20;;;;;;;15.56;100.00;96121.38;1021548;28;20026;-69
2021/07/08 02:22:01;;;;;;;62.30;27.25;;;;;;;15.55;100.00;96127.72;1018529;29;20040;-69